Aérodrome :
LOGIN :

S'inscrire | Disclaimer

   EN    FR    IT 

 










Légende :    VFR   VFR Marginal   IFR   IFR Intensif   IFR Très Intensif
Visi : 
Plafond : 
>= 8 km
>= 3000ft
5 à 8 km
1000 à 3000 ft
1500m à 5 km
500 à 1000 ft
800 à 1500m
200 à 500 ft
< 800m
< 200 ft
Symboles :   Orages  Brouillard  Fortes neiges  Fortes précipitations  Vent > 20 kt
SIGMETs :   Divers  Orages  Givrage  Turbulence  Onde Orograph.  Cendres Volcan.







- Altitude de l'aérodrome : 425 ft
- Code IATA : DTM


EDLW - Dortmund

DERNIER METAR :
  • 271320Z 18009KT 140V220 CAVOK 28/07 Q1017

METARs EXPIRÉS :
  • 271250Z 14009KT 110V180 CAVOK 28/09 Q1018
  • 271220Z 15006KT 100V210 CAVOK 28/09 Q1018
  • 271150Z 11007KT 080V190 CAVOK 27/09 Q1018
  • 271120Z 14007KT 110V180 CAVOK 27/09 Q1018
  • 271050Z 14007KT 060V200 CAVOK 27/10 Q1019

TAF TAF EDLW
Valide du 27 à 12h jusqu'au 28 à 12h UTC


271100Z 2712/2812 15009KT CAVOK
BECMG 2723/2801 17004KT
BECMG 2808/2811 28005KT
Pas de NOTAMs connus pour ce terrain.



MET'MAP, la Météo Aéronautique d'un coup d'oeil ! - Copyright ORBIFLY Décembre 2007 - Disclaimer

ORBIFLY MET'MAP TEAM :

Programmation & Développement : Alexandra Zaïnal
Conception & Développement : Baudouin d'Aumeries
Co-Programmation & Développement : Marc-Olivier Méhu
Soutien technique & logistique : Manuel Goepfert

Contact : metmap@orbifly.com




SOURCES & CREDITS :

   NOAA